Flight Track Log - Related Links

Times and Time Zones

All times are in EDT time to prevent confusion due to time zone crossing. See the AWE479 flight status page for this flight to view local times or setup timezone preferences in your user account.

Time Position Orientation Groundspeed Altitude Reporting Facility
EDT Latitude Longitude Course Direction KTS MPH feet Rate Location/Type
Tue 07:53:00 AM 35.1739 -81.4189 239° Southwest  Level FlightAware Approximate
Tue 07:53:27 AM 35.1220 -81.1090 239° Southwest 279 321 7,100  Level FlightAware ADS-B
Tue 07:53:42 AM 35.1230 -81.1360 273° West 281 323 7,700 1,200 Climbing FlightAware ADS-B
Tue 07:54:12 AM 35.1240 -81.1830 272° West 281 323 8,000 480 Climbing FlightAware ADS-B
Tue 07:54:32 AM 35.1250 -81.2110 273° West 284 327 8,100 1,200 Climbing FlightAware ADS-B
Tue 07:54:52 AM 35.1260 -81.2440 272° West 291 335 8,800 2,727 Climbing FlightAware ADS-B
Tue 07:55:27 AM 35.1280 -81.3030 272° West 287 330 10,600 1,350 Climbing FlightAware ADS-B
Tue 07:56:12 AM 35.1310 -81.3680 273° West 287 330 10,600 1,080 Level FlightAware ADS-B
Tue 07:57:07 AM 35.1330 -81.4670 271° West 299 344 12,400 1,137 Climbing FlightAware ADS-B
Tue 07:57:47 AM 35.1340 -81.5240 271° West 299 344 12,400  Level FlightAware ADS-B
Tue 07:58:37 AM 35.1360 -81.5960 272° West 299 344 12,400 1,935 Level FlightAware ADS-B
Tue 08:02:54 AM 35.0931 -82.2760 266° West 432 497 22,300 2,270 Climbing FlightAware ADS-B
Tue 08:03:04 AM 35.0974 -82.2987 283° West 434 499 22,500 750 Climbing FlightAware ADS-B
Tue 08:03:34 AM 35.1156 -82.3702 287° West 445 512 22,800 492 Climbing FlightAware ADS-B
Tue 08:04:05 AM 35.1346 -82.4446 287° West 456 525 23,000 689 Climbing FlightAware ADS-B
Tue 08:04:35 AM 35.1536 -82.5191 287° West 460 529 23,500 900 Climbing FlightAware ADS-B
Tue 08:05:05 AM 35.1730 -82.5947 287° West 464 534 23,900 885 Climbing FlightAware ADS-B
Tue 08:05:36 AM 35.1922 -82.6704 287° West 466 536 24,400 984 Climbing FlightAware ADS-B
Tue 08:06:06 AM 35.2116 -82.7463 287° West 468 539 24,900 783 Climbing FlightAware ADS-B
Tue 08:06:45 AM 35.2372 -82.8474 287° West 468 539 25,300 1,114 Climbing FlightAware ADS-B
Tue 08:07:16 AM 35.2565 -82.9241 287° West 461 531 26,200 1,161 Climbing FlightAware ADS-B
Tue 08:07:47 AM 35.2762 -83.0019 287° West 465 535 26,500 590 Climbing FlightAware ADS-B
Tue 08:08:17 AM 35.2954 -83.0786 287° West 472 543 26,800 885 Climbing FlightAware ADS-B
Tue 08:08:48 AM 35.3150 -83.1572 287° West 471 542 27,400 885 Climbing FlightAware ADS-B
Tue 08:09:18 AM 35.3345 -83.2346 287° West 478 550 27,700 787 Climbing FlightAware ADS-B
Tue 08:09:49 AM 35.3541 -83.3139 287° West 479 551 28,200 871 Climbing FlightAware ADS-B
Tue 08:10:20 AM 35.3743 -83.3948 287° West 482 555 28,600 1,161 Climbing FlightAware ADS-B
Tue 08:10:51 AM 35.3940 -83.4745 287° West 475 547 29,400 1,574 Climbing FlightAware ADS-B
Tue 08:11:21 AM 35.4130 -83.5517 287° West 467 537 30,200 1,279 Climbing FlightAware ADS-B
Tue 08:11:52 AM 35.4324 -83.6301 287° West 466 536 30,700 1,065 Climbing FlightAware ADS-B
Tue 08:12:23 AM 35.4513 -83.7072 287° West 461 531 31,300 1,143 Climbing FlightAware ADS-B
Tue 08:12:55 AM 35.4711 -83.7888 287° West 459 528 31,900 1,313 Climbing FlightAware ADS-B
Tue 08:13:27 AM 35.4900 -83.8662 287° West 450 518 32,700 1,161 Climbing FlightAware ADS-B
Tue 08:13:57 AM 35.5079 -83.9398 287° West 448 516 33,100 590 Climbing FlightAware ADS-B
Tue 08:14:28 AM 35.5260 -84.0146 287° West 451 519 33,300 492 Climbing FlightAware ADS-B
Tue 08:14:58 AM 35.5439 -84.0888 287° West 452 520 33,600 590 Climbing FlightAware ADS-B
Tue 08:15:29 AM 35.5623 -84.1656 286° West 452 520 33,900 393 Climbing FlightAware ADS-B
Tue 08:15:59 AM 35.5804 -84.2407 287° West 458 527 34,000 100 Climbing FlightAware ADS-B
Tue 08:16:29 AM 35.5986 -84.3163 287° West 463 533 34,000  Level FlightAware ADS-B
Tue 08:17:00 AM 35.6168 -84.3928 286° West 465 535 34,000  Level FlightAware ADS-B
Tue 08:17:30 AM 35.6348 -84.4693 286° West 464 534 34,000  Level FlightAware ADS-B
Tue 08:18:00 AM 35.6527 -84.5451 286° West 464 534 34,000  Level FlightAware ADS-B
Tue 08:18:31 AM 35.6712 -84.6239 286° West 462 532 34,000  Level FlightAware ADS-B
Tue 08:19:03 AM 35.6903 -84.7047 286° West 463 533 34,000  Level FlightAware ADS-B
Tue 08:19:34 AM 35.7084 -84.7820 286° West 463 533 34,000  Level FlightAware ADS-B
Tue 08:20:04 AM 35.7265 -84.8590 286° West 464 534 34,000  Level FlightAware ADS-B
Tue 08:20:34 AM 35.7444 -84.9358 286° West 465 535 34,000  Level FlightAware ADS-B
Tue 08:21:04 AM 35.7623 -85.0126 286° West 466 536 34,000  Level FlightAware ADS-B
Tue 08:21:36 AM 35.7812 -85.0940 286° West 467 537 34,000  Level FlightAware ADS-B
Tue 08:22:07 AM 35.7992 -85.1716 286° West 468 539 34,000  Level FlightAware ADS-B
Tue 08:22:38 AM 35.8174 -85.2503 286° West 466 536 34,000  Level FlightAware ADS-B
Tue 08:23:08 AM 35.8348 -85.3273 286° West 467 537 34,000  Level FlightAware ADS-B
Tue 08:23:38 AM 35.8523 -85.4042 286° West 467 537 34,000  Level FlightAware ADS-B
Tue 08:24:08 AM 35.8699 -85.4811 286° West 467 537 34,000  Level FlightAware ADS-B
Tue 08:24:39 AM 35.8879 -85.5598 286° West 467 537 34,000  Level FlightAware ADS-B
Tue 08:25:09 AM 35.9054 -85.6366 286° West 462 532 34,000  Level FlightAware ADS-B
Tue 08:25:39 AM 35.9229 -85.7140 286° West 460 529 34,000  Level FlightAware ADS-B
Tue 08:26:14 AM 35.9426 -85.8020 285° West 461 531 34,000  Level FlightAware ADS-B
Tue 08:26:45 AM 35.9601 -85.8801 285° West 460 529 34,000  Level FlightAware ADS-B
Tue 08:27:16 AM 35.9777 -85.9586 286° West 459 528 34,000  Level FlightAware ADS-B
Tue 08:27:49 AM 35.9963 -86.0424 285° West 460 529 34,000  Level FlightAware ADS-B
Tue 08:28:20 AM 36.0135 -86.1199 285° West 459 528 34,000  Level FlightAware ADS-B
Tue 08:28:50 AM 36.0305 -86.1967 285° West 457 526 34,000  Level FlightAware ADS-B
Tue 08:29:21 AM 36.0474 -86.2735 285° West 454 522 34,000  Level FlightAware ADS-B
Tue 08:29:51 AM 36.0639 -86.3489 285° West 455 524 34,000  Level FlightAware ADS-B
Tue 08:30:39 AM 36.0904 -86.4699 285° West 453 521 34,000  Level FlightAware ADS-B
Tue 08:31:10 AM 36.1072 -86.5470 285° West 455 524 34,000  Level FlightAware ADS-B
Tue 08:31:46 AM 36.1271 -86.6383 285° West 455 524 34,000  Level FlightAware ADS-B
Tue 08:32:04 AM 36.1390 -86.6825 288° West 452 520 34,000  Level FlightAware ADS-B
Tue 08:32:52 AM 36.1770 -86.7900 294° West 437 503 34,000  Level FlightAware ADS-B
Tue 08:33:37 AM 36.2150 -86.8880 296° West 434 499 34,000  Level FlightAware ADS-B
Tue 08:34:17 AM 36.2490 -86.9800 295° West 434 499 34,000  Level FlightAware ADS-B
Tue 08:35:02 AM 36.2880 -87.0820 295° West 428 493 34,000  Level FlightAware ADS-B
Tue 08:35:42 AM 36.3210 -87.1710 295° West 421 484 34,000  Level FlightAware ADS-B
Tue 08:36:22 AM 36.3530 -87.2570 295° West 425 489 34,000  Level FlightAware ADS-B
Tue 08:37:07 AM 36.3900 -87.3550 295° West 417 480 34,000  Level FlightAware ADS-B
Tue 08:37:52 AM 36.4270 -87.4540 295° West 404 465 34,000  Level FlightAware ADS-B
Tue 08:38:32 AM 36.4570 -87.5340 295° West 406 467 34,000  Level FlightAware ADS-B
Tue 08:39:17 AM 36.4930 -87.6300 295° West 413 475 34,000  Level FlightAware ADS-B
Tue 08:39:57 AM 36.5250 -87.7170 295° West 419 482 34,000 300 Level FlightAware ADS-B
Tue 08:40:37 AM 36.5570 -87.8050 294° West 417 480 34,400 706 Climbing FlightAware ADS-B
Tue 08:41:22 AM 36.5940 -87.9040 295° West 413 475 35,000 635 Climbing FlightAware ADS-B
Tue 08:42:02 AM 36.6260 -87.9910 295° West 414 476 35,300 494 Climbing FlightAware ADS-B
Tue 08:42:47 AM 36.6620 -88.0910 294° West 416 479 35,700 494 Climbing FlightAware ADS-B
Tue 08:43:27 AM 36.6920 -88.1740 294° West 416 479 36,000 225 Climbing FlightAware ADS-B
Tue 08:44:07 AM 36.7260 -88.2660 295° West 423 487 36,000  Level FlightAware ADS-B
Tue 08:44:52 AM 36.7620 -88.3640 295° West 431 496 36,000  Level FlightAware ADS-B
Tue 08:45:32 AM 36.7950 -88.4570 294° West 431 496 36,000  Level FlightAware ADS-B
Tue 08:46:17 AM 36.8320 -88.5590 294° West 434 499 36,000  Level FlightAware ADS-B
Tue 08:46:57 AM 36.8650 -88.6520 294° West 438 504 36,000  Level FlightAware ADS-B
Tue 08:47:37 AM 36.8980 -88.7440 294° West 434 499 36,000  Level FlightAware ADS-B
Tue 08:48:22 AM 36.9310 -88.8380 294° West 436 502 36,000  Level FlightAware ADS-B
Tue 08:49:02 AM 36.9630 -88.9290 294° West 437 503 36,000  Level FlightAware ADS-B
Tue 08:49:42 AM 36.9890 -89.0080 292° West 437 503 36,000  Level FlightAware ADS-B
Tue 08:50:22 AM 37.0320 -89.1220 295° West 437 503 36,000  Level FlightAware ADS-B
Tue 08:51:02 AM 37.0650 -89.2160 294° West 436 502 36,000  Level FlightAware ADS-B
Tue 08:52:07 AM 37.1140 -89.3560 294° West 436 502 36,000  Level FlightAware ADS-B
Tue 08:52:47 AM 37.1400 -89.4360 292° West 436 502 36,000  Level FlightAware ADS-B
Tue 08:53:27 AM 37.1670 -89.5150 293° West 436 502 36,000  Level FlightAware ADS-B
Tue 08:54:07 AM 37.1940 -89.5940 293° West 436 502 36,000  Level FlightAware ADS-B
Tue 08:54:47 AM 37.2210 -89.6730 293° West 436 502 36,000  Level FlightAware ADS-B
Tue 08:55:27 AM 37.2480 -89.7530 293° West 436 502 36,000  Level FlightAware ADS-B
Tue 08:56:17 AM 37.2810 -89.8520 293° West 436 502 36,000  Level FlightAware ADS-B
Tue 08:56:57 AM 37.3080 -89.9310 293° West 436 502 36,000  Level FlightAware ADS-B
Tue 08:57:37 AM 37.3350 -90.0100 293° West 436 502 36,000  Level FlightAware ADS-B
Tue 08:58:17 AM 37.3610 -90.0900 292° West 436 502 36,000  Level FlightAware ADS-B
Tue 08:58:57 AM 37.3880 -90.1690 293° West 436 502 36,000  Level FlightAware ADS-B
Tue 08:59:47 AM 37.4220 -90.2690 293° West 436 502 36,000  Level FlightAware ADS-B
Tue 09:00:27 AM 37.4480 -90.3480 293° West 436 502 36,000  Level FlightAware ADS-B
Tue 09:01:07 AM 37.4750 -90.4280 293° West 436 502 36,000  Level FlightAware ADS-B
Tue 09:01:27 AM 37.5769 -90.6467 293° West 438 504 36,000 -73 Level Kansas City Center
Tue 09:02:29 AM 37.6344 -90.7764 299° West 433 498 35,900  Descending Kansas City Center
Tue 09:03:31 AM 37.6931 -90.9108 299° West 434 499 36,000 49 Climbing Kansas City Center
Tue 09:04:32 AM 37.7511 -91.0453 299° West 436 502 36,000  Level Kansas City Center
Tue 09:05:34 AM 37.8150 -91.1928 299° West 436 502 36,000  Level Kansas City Center
Tue 09:06:36 AM 37.8736 -91.3272 299° West 436 502 36,000  Level Kansas City Center
Tue 09:07:37 AM 37.9300 -91.4614 298° West 434 499 36,000  Level Kansas City Center
Tue 09:08:39 AM 37.9983 -91.6222 298° West 433 498 36,000  Level Kansas City Center
Tue 09:09:41 AM 38.0567 -91.7558 299° West 434 499 36,000  Level Kansas City Center
Tue 09:10:43 AM 38.1136 -91.8903 298° West 434 499 36,000  Level Kansas City Center
Tue 09:11:44 AM 38.1703 -92.0253 298° West 435 501 36,000  Level Kansas City Center
Tue 09:17:37 AM 38.5040 -92.8260 298° West 425 489 36,000  Level FlightAware ADS-B
Tue 09:18:17 AM 38.5370 -92.9080 297° West 426 490 36,000  Level FlightAware ADS-B
Tue 09:19:02 AM 38.5750 -93.0010 298° West 426 490 36,000  Level FlightAware ADS-B
Tue 09:19:47 AM 38.6220 -93.1150 298° West 428 493 36,000  Level FlightAware ADS-B
Tue 09:20:32 AM 38.6640 -93.2190 297° West 432 497 36,000  Level FlightAware ADS-B
Tue 09:21:12 AM 38.6990 -93.3050 298° West 434 499 36,000  Level FlightAware ADS-B
Tue 09:21:57 AM 38.7420 -93.4100 298° West 436 502 36,000  Level FlightAware ADS-B
Tue 09:22:37 AM 38.7790 -93.5030 297° West 438 504 36,000  Level FlightAware ADS-B
Tue 09:23:17 AM 38.8160 -93.5940 298° West 439 505 36,000  Level FlightAware ADS-B
Tue 09:24:02 AM 38.8590 -93.7020 297° West 436 502 36,000  Level FlightAware ADS-B
Tue 09:24:42 AM 38.8950 -93.7930 297° West 435 501 36,000  Level FlightAware ADS-B
Tue 09:25:27 AM 38.9350 -93.8940 297° West 419 482 36,000  Level FlightAware ADS-B
Tue 09:26:07 AM 38.9700 -93.9820 297° West 410 472 36,000  Level FlightAware ADS-B
Tue 09:26:47 AM 39.0050 -94.0690 297° West 412 474 36,000  Level FlightAware ADS-B
Tue 09:27:32 AM 39.0440 -94.1690 297° West 413 475 36,000  Level FlightAware ADS-B
Tue 09:28:12 AM 39.0770 -94.2540 297° West 415 478 36,000  Level FlightAware ADS-B
Tue 09:28:57 AM 39.1170 -94.3560 297° West 415 478 36,000  Level FlightAware ADS-B
Tue 09:29:37 AM 39.1520 -94.4450 297° West 415 478 36,000  Level FlightAware ADS-B
Tue 09:30:22 AM 39.1890 -94.5410 296° West 414 476 36,000  Level FlightAware ADS-B
Tue 09:31:02 AM 39.2240 -94.6300 297° West 414 476 36,000  Level FlightAware ADS-B
Tue 09:31:42 AM 39.2590 -94.7200 297° West 414 476 36,000  Level FlightAware ADS-B
Tue 09:32:27 AM 39.2970 -94.8200 296° West 412 474 36,000  Level FlightAware ADS-B
Tue 09:33:07 AM 39.3310 -94.9090 296° West 411 473 36,000  Level FlightAware ADS-B
Tue 09:33:52 AM 39.3680 -95.0040 297° West 411 473 36,000  Level FlightAware ADS-B
Tue 09:34:32 AM 39.4020 -95.0940 296° West 411 473 36,000  Level FlightAware ADS-B
Tue 09:35:12 AM 39.4360 -95.1830 296° West 419 482 36,000  Level FlightAware ADS-B
Tue 09:35:57 AM 39.4760 -95.2880 296° West 430 495 36,000  Level FlightAware ADS-B
Tue 09:36:37 AM 39.5120 -95.3820 296° West 438 504 36,000  Level FlightAware ADS-B
Tue 09:37:17 AM 39.5470 -95.4750 296° West 439 505 36,000  Level FlightAware ADS-B
Tue 09:38:02 AM 39.5860 -95.5790 296° West 440 506 36,000  Level FlightAware ADS-B
Tue 09:38:42 AM 39.6220 -95.6760 296° West 439 505 36,000  Level FlightAware ADS-B
Tue 09:39:27 AM 39.6600 -95.7790 296° West 439 505 36,000  Level FlightAware ADS-B
Tue 09:40:07 AM 39.6440 -95.7350 115° Southeast 440 506 36,000  Level FlightAware ADS-B
Tue 09:40:52 AM 39.7020 -95.8900 296° West 440 506 36,000  Level FlightAware ADS-B
Tue 09:41:32 AM 39.7340 -95.9760 296° West 439 505 36,000  Level FlightAware ADS-B
Tue 09:42:17 AM 39.7590 -96.0450 295° West 440 506 36,000  Level FlightAware ADS-B
Tue 09:43:12 AM 39.7980 -96.1520 295° West 440 506 36,000  Level FlightAware ADS-B
Tue 09:43:52 AM 39.8470 -96.2830 296° West 439 505 36,000  Level FlightAware ADS-B
Tue 09:44:32 AM 39.8830 -96.3840 295° West 439 505 36,000  Level FlightAware ADS-B
Tue 09:45:17 AM 39.9140 -96.4680 296° West 439 505 36,000  Level FlightAware ADS-B
Tue 09:45:52 AM 39.9380 -96.5320 296° West 439 505 36,000  Level FlightAware ADS-B
Tue 09:46:42 AM 39.9900 -96.6770 295° West 439 505 36,000  Level FlightAware ADS-B
Tue 09:47:22 AM 40.0320 -96.7930 295° West 438 504 36,000  Level FlightAware ADS-B
Tue 09:48:17 AM 40.0710 -96.9020 295° West 438 504 36,000  Level FlightAware ADS-B
Tue 09:48:57 AM 40.1000 -96.9830 295° West 438 504 36,000  Level FlightAware ADS-B
Tue 09:49:37 AM 40.1290 -97.0650 295° West 438 504 36,000  Level FlightAware ADS-B
Tue 09:50:17 AM 40.1580 -97.1470 295° West 438 504 36,000  Level FlightAware ADS-B
Tue 09:51:07 AM 40.1950 -97.2490 295° West 438 504 36,000  Level FlightAware ADS-B
Tue 09:51:47 AM 40.2240 -97.3310 295° West 438 504 36,000  Level FlightAware ADS-B
Tue 09:52:27 AM 40.2530 -97.4130 295° West 438 504 36,000  Level FlightAware ADS-B
Tue 09:53:07 AM 40.2820 -97.4940 295° West 438 504 36,000  Level FlightAware ADS-B
Tue 09:53:47 AM 40.3110 -97.5760 295° West 438 504 36,000  Level FlightAware ADS-B
Tue 09:54:37 AM 40.3470 -97.6790 295° West 438 504 36,000  Level FlightAware ADS-B
Tue 09:55:17 AM 40.3770 -97.7610 296° West 438 504 36,000  Level FlightAware ADS-B
Tue 09:55:57 AM 40.4060 -97.8430 295° West 438 504 36,000  Level FlightAware ADS-B
Tue 09:56:37 AM 40.4350 -97.9250 295° West 438 504 36,000  Level FlightAware ADS-B
Tue 09:57:17 AM 40.4640 -98.0070 295° West 438 504 36,000  Level FlightAware ADS-B
Tue 09:57:58 AM 40.5922 -98.4025 295° West 437 503 36,000  Level Denver Center
Tue 09:58:23 AM 40.6092 -98.4936 284° West 433 498 36,000  Level Minneapolis Center
Tue 09:59:24 AM 40.6244 -98.6517 277° West 431 496 36,000  Level Minneapolis Center
Tue 10:00:26 AM 40.6397 -98.8403 276° West 430 495 36,000  Level Minneapolis Center
Tue 10:01:28 AM 40.6544 -98.9975 277° West 429 494 36,000  Level Minneapolis Center
Tue 10:02:30 AM 40.6678 -99.1539 276° West 429 494 36,000  Level Minneapolis Center
Tue 10:03:05 AM 40.6758 -99.2478 276° West 427 491 36,000  Level Denver Center
Tue 10:04:06 AM 40.6900 -99.4056 277° West 431 496 36,000  Level Denver Center
Tue 10:05:08 AM 40.7019 -99.5631 276° West 432 497 36,000  Level Denver Center
Tue 10:06:09 AM 40.7147 -99.7181 276° West 426 490 36,000  Level Denver Center
Tue 10:07:11 AM 40.7275 -99.8822 276° West 430 495 36,000  Level Denver Center
Tue 10:08:13 AM 40.7383 -100.0314 276° West 428 493 36,000  Level Denver Center
Tue 10:09:14 AM 40.7528 -100.2072 276° West 432 497 36,000  Level Denver Center
Tue 10:14:44 AM 40.7178 -101.0760 276° West 429 494 36,000  Level FlightAware ADS-B
Tue 10:15:16 AM 40.7038 -101.1560 257° West 428 493 36,000  Level FlightAware ADS-B
Tue 10:15:46 AM 40.6903 -101.2320 257° West 427 491 36,000  Level FlightAware ADS-B
Tue 10:16:16 AM 40.6770 -101.3080 257° West 427 491 36,000  Level FlightAware ADS-B
Tue 10:16:47 AM 40.6635 -101.3860 257° West 426 490 36,000  Level FlightAware ADS-B
Tue 10:17:17 AM 40.6501 -101.4620 257° West 426 490 36,000  Level FlightAware ADS-B
Tue 10:17:48 AM 40.6361 -101.5420 257° West 426 490 36,000  Level FlightAware ADS-B
Tue 10:18:18 AM 40.6226 -101.6170 257° West 426 490 36,000  Level FlightAware ADS-B
Tue 10:18:49 AM 40.6089 -101.6940 257° West 427 491 36,000  Level FlightAware ADS-B
Tue 10:19:19 AM 40.5950 -101.7700 256° West 427 491 36,000  Level FlightAware ADS-B
Tue 10:19:51 AM 40.5806 -101.8500 257° West 429 494 36,000  Level FlightAware ADS-B
Tue 10:20:24 AM 40.5652 -101.9340 256° West 429 494 36,000  Level FlightAware ADS-B
Tue 10:20:54 AM 40.5512 -102.0110 257° West 430 495 36,000  Level FlightAware ADS-B
Tue 10:21:25 AM 40.5369 -102.0880 256° West 430 495 36,000  Level FlightAware ADS-B
Tue 10:21:55 AM 40.5228 -102.1640 256° West 430 495 36,000  Level FlightAware ADS-B
Tue 10:22:26 AM 40.5082 -102.2430 256° West 430 495 36,000 -98 Level FlightAware ADS-B
Tue 10:22:56 AM 40.4939 -102.3200 256° West 431 496 35,900 -600 Descending FlightAware ADS-B
Tue 10:23:26 AM 40.4796 -102.3970 256° West 432 497 35,400 -984 Descending FlightAware ADS-B
Tue 10:23:57 AM 40.4653 -102.4750 256° West 435 501 34,900 -984 Descending FlightAware ADS-B
Tue 10:24:27 AM 40.4508 -102.5530 256° West 437 503 34,400 -984 Descending FlightAware ADS-B
Tue 10:24:58 AM 40.4361 -102.6310 256° West 439 505 33,900 -984 Descending FlightAware ADS-B
Tue 10:25:28 AM 40.4215 -102.7090 256° West 441 507 33,400 -1,500 Descending FlightAware ADS-B
Tue 10:25:58 AM 40.4068 -102.7870 256° West 443 510 32,400 -1,839 Descending FlightAware ADS-B
Tue 10:26:30 AM 40.3913 -102.8690 256° West 431 496 31,500 -2,032 Descending FlightAware ADS-B
Tue 10:27:00 AM 40.3769 -102.9460 256° West 428 493 30,300 -2,361 Descending FlightAware ADS-B
Tue 10:27:31 AM 40.3624 -103.0220 256° West 423 487 29,100 -2,262 Descending FlightAware ADS-B
Tue 10:28:01 AM 40.3480 -103.0970 256° West 417 480 28,000 -2,095 Descending FlightAware ADS-B
Tue 10:28:34 AM 40.3326 -103.1770 256° West 410 472 26,900 -2,063 Descending FlightAware ADS-B
Tue 10:29:05 AM 40.3185 -103.2500 256° West 403 464 25,800 -2,066 Descending FlightAware ADS-B
Tue 10:29:35 AM 40.3045 -103.3230 256° West 400 460 24,800 -2,129 Descending FlightAware ADS-B
Tue 10:30:07 AM 40.2900 -103.3970 256° West 395 455 23,600 -2,032 Descending FlightAware ADS-B
Tue 10:30:37 AM 40.2780 -103.4590 256° West 390 449 22,700 -1,935 Descending FlightAware ADS-B
Tue 10:30:38 AM 40.2764 -103.4670 255° West 389 448 22,600 -2,323 Descending FlightAware ADS-B
Tue 10:31:08 AM 40.2628 -103.5360 256° West 383 441 21,500 -2,066 Descending FlightAware ADS-B
Tue 10:31:39 AM 40.2495 -103.6040 256° West 377 434 20,500 -1,742 Descending FlightAware ADS-B
Tue 10:32:10 AM 40.2360 -103.6730 256° West 365 420 19,700 -1,645 Descending FlightAware ADS-B
Tue 10:32:41 AM 40.2233 -103.7370 255° West 359 413 18,800 -1,377 Descending FlightAware ADS-B
Tue 10:33:11 AM 40.2107 -103.8000 255° West 342 394 18,300 -980 Descending FlightAware ADS-B
Tue 10:33:30 AM 40.2037 -103.8360 256° West 331 381 18,000 -818 Descending FlightAware ADS-B
Tue 10:33:33 AM 40.2029 -103.8420 260° West 330 380 18,000 -857 Level FlightAware ADS-B
Tue 10:33:37 AM 40.2022 -103.8500 263° West 329 379 17,900 -1,714 Descending FlightAware ADS-B
Tue 10:33:47 AM 40.2027 -103.8700 272° West 327 376 17,600 -1,650 Descending FlightAware ADS-B
Tue 10:34:17 AM 40.2081 -103.9290 277° West 323 372 16,800 -1,672 Descending FlightAware ADS-B
Tue 10:34:48 AM 40.2134 -103.9880 277° West 321 369 15,900 -1,607 Descending FlightAware ADS-B
Tue 10:35:13 AM 40.2180 -104.0360 277° West 320 368 15,300 -1,527 Descending FlightAware ADS-B
Tue 10:35:43 AM 40.2232 -104.0930 277° West 315 362 14,500 -1,500 Descending FlightAware ADS-B
Tue 10:36:13 AM 40.2285 -104.1510 277° West 309 356 13,800 -1,368 Descending FlightAware ADS-B
Tue 10:36:40 AM 40.2331 -104.2000 277° West 303 349 13,200 -1,368 Descending FlightAware ADS-B
Tue 10:37:10 AM 40.2380 -104.2540 277° West 297 342 12,500 -1,263 Descending FlightAware ADS-B
Tue 10:37:37 AM 40.2422 -104.3020 277° West 286 329 12,000 -938 Descending FlightAware ADS-B
Tue 10:37:42 AM 40.2424 -104.3100 272° West 284 327 12,000 -667 Level FlightAware ADS-B
Tue 10:37:46 AM 40.2420 -104.3160 265° West 283 326 11,900 -667 Descending FlightAware ADS-B
Tue 10:37:51 AM 40.2407 -104.3240 258° West 280 322 11,900 -750 Level FlightAware ADS-B
Tue 10:37:54 AM 40.2394 -104.3290 251° West 279 321 11,800 -1,000 Descending FlightAware ADS-B
Tue 10:37:57 AM 40.2378 -104.3340 247° West 278 320 11,800 -600 Level FlightAware ADS-B
Tue 10:38:04 AM 40.2332 -104.3440 239° Southwest 275 316 11,700 -615 Descending FlightAware ADS-B
Tue 10:38:36 AM 40.2118 -104.3870 237° Southwest 257 296 11,400 -774 Descending FlightAware ADS-B
Tue 10:39:06 AM 40.1920 -104.4260 236° Southwest 248 285 10,900 -1,200 Descending FlightAware ADS-B
Tue 10:39:36 AM 40.1730 -104.4630 236° Southwest 249 287 10,200 -1,364 Descending FlightAware ADS-B
Tue 10:39:50 AM 40.1646 -104.4800 237° Southwest 250 288 9,900 -1,286 Descending FlightAware ADS-B
Tue 10:40:04 AM 40.1549 -104.4980 235° Southwest 249 287 9,600 -1,161 Descending FlightAware ADS-B
Tue 10:40:21 AM 40.1436 -104.5190 235° Southwest 249 287 9,300 -1,091 Descending FlightAware ADS-B
Tue 10:40:37 AM 40.1330 -104.5380 234° Southwest 248 285 9,000 -1,241 Descending FlightAware ADS-B
Tue 10:40:50 AM 40.1240 -104.5540 234° Southwest 246 283 8,700 -1,200 Descending FlightAware ADS-B
Tue 10:41:07 AM 40.1130 -104.5740 234° Southwest 245 282 8,400 -1,143 Descending FlightAware ADS-B
Tue 10:41:11 AM 40.1101 -104.5780 227° Southwest 245 282 8,300 -750 Descending FlightAware ADS-B
Tue 10:41:15 AM 40.1067 -104.5830 228° Southwest 246 283 8,300 -750 Level FlightAware ADS-B
Tue 10:41:19 AM 40.1026 -104.5870 217° Southwest 245 282 8,200 -857 Descending FlightAware ADS-B
Tue 10:41:22 AM 40.0996 -104.5890 207° Southwest 244 281 8,200 -857 Level FlightAware ADS-B
Tue 10:41:26 AM 40.0963 -104.5920 215° Southwest 243 280 8,100 -750 Descending FlightAware ADS-B
Tue 10:41:38 AM 40.0839 -104.6000 206° Southwest 238 274 8,000 -828 Descending FlightAware ADS-B
Tue 10:41:55 AM 40.0679 -104.6100 206° Southwest 231 266 7,700 -783 Descending FlightAware ADS-B
Tue 10:42:01 AM 40.0623 -104.6150 214° Southwest 228 262 7,700 -353 Level FlightAware ADS-B
Tue 10:42:12 AM 40.0527 -104.6240 216° Southwest 220 253 7,600 -692 Descending FlightAware ADS-B
Tue 10:42:27 AM 40.0405 -104.6350 215° Southwest 213 245 7,400 -581 Descending FlightAware ADS-B
Tue 10:42:43 AM 40.0285 -104.6460 215° Southwest 199 229 7,300 -667 Descending FlightAware ADS-B
Tue 10:42:54 AM 40.0197 -104.6540 215° Southwest 191 220 7,100 -667 Descending FlightAware ADS-B
Tue 10:43:10 AM 40.0083 -104.6650 216° Southwest 191 220 7,000 -261 Descending FlightAware ADS-B
Tue 10:43:17 AM 40.0035 -104.6690 213° Southwest 193 222 7,000  Level FlightAware ADS-B
Tue 10:43:23 AM 39.9991 -104.6730 215° Southwest 194 223 7,000  Level FlightAware ADS-B
Tue 10:43:30 AM 39.9936 -104.6770 209° Southwest 196 226 7,000 -353 Level FlightAware ADS-B
Tue 10:43:40 AM 39.9858 -104.6830 211° Southwest 198 228 6,900 -923 Descending FlightAware ADS-B
Tue 10:43:43 AM 39.9832 -104.6850 211° Southwest 198 228 6,800 -1,000 Descending FlightAware ADS-B
Tue 10:43:46 AM 39.9804 -104.6870 209° Southwest 199 229 6,800 -750 Level FlightAware ADS-B
Tue 10:43:51 AM 39.9758 -104.6880 189° South 201 231 6,700 -667 Descending FlightAware ADS-B
Tue 10:43:55 AM 39.9725 -104.6880 180° South 202 232 6,700 -947 Level FlightAware ADS-B
Tue 10:44:10 AM 39.9583 -104.6870 177° South 189 217 6,400 -923 Descending FlightAware ADS-B
Tue 10:44:21 AM 39.9496 -104.6870 180° South 179 206 6,300 -783 Descending FlightAware ADS-B
Tue 10:44:33 AM 39.9395 -104.6860 176° South 173 199 6,100 -857 Descending FlightAware ADS-B
Tue 10:44:42 AM 39.9323 -104.6860 180° South 172 198 6,000 -667 Descending FlightAware ADS-B
Tue 10:44:51 AM 39.9251 -104.6860 180° South 171 197 5,900 -857 Descending FlightAware ADS-B
Tue 10:45:10 AM 39.9105 -104.6870 183° South 165 190 5,600 -1,029 Descending FlightAware ADS-B
Tue 10:45:26 AM 39.8983 -104.6870 180° South 155 178 5,300 -1,125 Descending FlightAware ADS-B

Login

Don't have an account? Register now (free) for customized features, flight alerts, and more!